Time;durP1;ratioP1;P1;durP2;ratioP2;P2;SDS_P1;SDS_P2;PMS_P1;PMS_P2;Temp;Humidity;BMP_temperature;BMP_pressure;BME280_temperature;BME280_humidity;BME280_pressure;Samples;Min_cycle;Max_cycle;Signal;HPM_P1;HPM_P2
2022/06/24 00:02:08;;;;;;;4.80;2.72;;;20.40;99.90;;;;;;5030640;28;20029;-90
2022/06/24 00:04:33;;;;;;;5.20;2.88;;;20.30;99.90;;;;;;5032112;28;20162;-90
2022/06/24 00:06:59;;;;;;;4.35;2.90;;;20.30;99.90;;;;;;5020495;28;20037;-90
2022/06/24 00:09:30;;;;;;;5.55;3.08;;;20.20;99.90;;;;;;5046460;28;20109;-90
2022/06/24 00:12:06;;;;;;;5.45;3.22;;;20.20;99.90;;;;;;5034663;28;20048;-90
2022/06/24 00:14:33;;;;;;;3.20;2.90;;;20.10;99.90;;;;;;5027418;28;20052;-90
2022/06/24 00:17:07;;;;;;;4.22;2.80;;;20.10;99.90;;;;;;5018816;28;20290;-90
2022/06/24 00:19:50;;;;;;;5.22;3.33;;;20.10;99.90;;;;;;5021054;28;20490;-90
2022/06/24 00:22:16;;;;;;;5.32;3.65;;;19.90;99.90;;;;;;5050067;28;20045;-89
2022/06/24 00:24:44;;;;;;;3.30;2.80;;;19.80;99.90;;;;;;5039115;28;20064;-90
2022/06/24 00:27:22;;;;;;;3.47;3.00;;;19.80;99.90;;;;;;5034171;28;20087;-90
2022/06/24 00:29:49;;;;;;;4.38;3.38;;;19.70;99.90;;;;;;5052325;28;20106;-90
2022/06/24 00:32:16;;;;;;;3.25;2.88;;;19.70;99.90;;;;;;5020794;28;20466;-91
2022/06/24 00:34:42;;;;;;;4.40;3.00;;;19.60;99.90;;;;;;5041098;28;20496;-90
2022/06/24 00:37:28;;;;;;;7.15;3.10;;;19.60;99.90;;;;;;5024108;28;20517;-90
2022/06/24 00:40:20;;;;;;;8.10;4.45;;;19.30;99.90;;;;;;5019175;28;20104;-90
2022/06/24 00:42:47;;;;;;;4.63;3.40;;;18.70;99.90;;;;;;5035441;28;20049;-91
2022/06/24 00:45:41;;;;;;;5.10;3.42;;;18.80;99.90;;;;;;5028727;28;20064;-90
2022/06/24 00:48:15;;;;;;;4.22;3.55;;;18.80;99.90;;;;;;5034092;28;20034;-89
2022/06/24 00:50:44;;;;;;;7.18;3.55;;;18.80;99.90;;;;;;5036823;28;20148;-89
2022/06/24 00:53:11;;;;;;;4.00;3.00;;;18.80;99.90;;;;;;5032148;28;20060;-89
2022/06/24 00:55:37;;;;;;;4.07;3.50;;;18.70;99.90;;;;;;5034226;28;20068;-90
2022/06/24 00:58:05;;;;;;;4.18;3.38;;;18.70;99.90;;;;;;5021300;28;20869;-90
2022/06/24 01:00:32;;;;;;;5.32;3.25;;;18.50;99.90;;;;;;5019107;28;20382;-90
2022/06/24 01:03:00;;;;;;;3.65;3.33;;;18.50;99.90;;;;;;5037283;28;20150;-90
2022/06/24 01:05:27;;;;;;;6.95;3.63;;;18.30;99.90;;;;;;5033490;28;20048;-90
2022/06/24 01:07:53;;;;;;;4.53;3.17;;;18.30;99.90;;;;;;5037927;28;20041;-90
2022/06/24 01:10:22;;;;;;;3.92;3.53;;;18.30;99.90;;;;;;5033285;28;20034;-89
2022/06/24 01:12:47;;;;;;;4.97;3.38;;;18.20;99.90;;;;;;5035096;28;20048;-90
2022/06/24 01:15:13;;;;;;;4.22;3.75;;;18.10;99.90;;;;;;5036089;28;20025;-91
2022/06/24 01:17:39;;;;;;;5.57;4.15;;;18.20;99.90;;;;;;5016886;28;20037;-90
2022/06/24 01:20:09;;;;;;;6.85;4.07;;;18.20;99.90;;;;;;5035381;28;20419;-89
2022/06/24 01:22:39;;;;;;;4.93;4.15;;;18.20;99.90;;;;;;5025833;28;20048;-91
2022/06/24 01:25:06;;;;;;;4.43;4.03;;;18.10;99.90;;;;;;5038347;28;20106;-90
2022/06/24 01:27:32;;;;;;;4.50;4.10;;;18.00;99.90;;;;;;5042748;28;20029;-90
2022/06/24 01:29:57;;;;;;;3.88;3.40;;;18.00;99.90;;;;;;5024387;28;20029;-89
2022/06/24 01:32:23;;;;;;;6.38;3.92;;;17.90;99.90;;;;;;5039403;28;20041;-90
2022/06/24 01:34:49;;;;;;;5.22;4.07;;;17.90;99.90;;;;;;5024373;28;20112;-91
2022/06/24 01:37:15;;;;;;;3.88;3.58;;;18.00;99.90;;;;;;5021121;28;20029;-90
2022/06/24 01:39:40;;;;;;;5.88;3.80;;;18.00;99.90;;;;;;5036575;28;20684;-90
2022/06/24 01:42:07;;;;;;;4.75;3.83;;;18.00;99.90;;;;;;5042267;28;20055;-89
2022/06/24 01:44:34;;;;;;;7.15;3.65;;;18.00;99.90;;;;;;5039321;28;20045;-90
2022/06/24 01:46:59;;;;;;;5.28;4.38;;;18.00;99.90;;;;;;5049391;28;20037;-90
2022/06/24 01:49:25;;;;;;;5.15;4.07;;;18.00;99.90;;;;;;5038206;28;20044;-90
2022/06/24 01:51:56;;;;;;;5.72;4.00;;;18.00;99.90;;;;;;5018742;28;20049;-90
2022/06/24 01:54:22;;;;;;;4.28;3.67;;;18.00;99.90;;;;;;5020740;28;20083;-90
2022/06/24 01:56:50;;;;;;;6.15;3.92;;;18.10;99.90;;;;;;5021486;28;20033;-90
2022/06/24 01:59:16;;;;;;;5.75;3.60;;;18.10;99.90;;;;;;5033244;28;20029;-90
2022/06/24 02:01:43;;;;;;;5.63;4.00;;;18.10;99.90;;;;;;5040295;28;20029;-90
2022/06/24 02:04:09;;;;;;;5.95;3.80;;;18.10;99.90;;;;;;5024374;28;20571;-90
2022/06/24 02:06:35;;;;;;;6.47;3.67;;;18.00;99.90;;;;;;5038262;28;20091;-90
2022/06/24 02:09:01;;;;;;;4.43;4.00;;;18.00;99.90;;;;;;5042720;28;20465;-90
2022/06/24 02:14:12;;;;;;;8.48;3.90;;;17.90;99.90;;;;;;5050541;28;20041;-91
2022/06/24 02:16:38;;;;;;;5.78;4.10;;;17.90;99.90;;;;;;5053732;28;20037;-91
2022/06/24 02:19:04;;;;;;;5.47;4.07;;;17.80;99.90;;;;;;5035616;28;20036;-90
2022/06/24 02:21:34;;;;;;;7.57;4.60;;;17.80;99.90;;;;;;5023949;28;20436;-88
2022/06/24 02:24:00;;;;;;;5.13;4.30;;;17.80;99.90;;;;;;5030609;28;20174;-90
2022/06/24 02:26:26;;;;;;;5.13;4.47;;;17.80;99.90;;;;;;5037585;28;20049;-90
2022/06/24 02:28:52;;;;;;;5.85;4.50;;;17.80;99.90;;;;;;5026787;28;20051;-90
2022/06/24 02:31:18;;;;;;;6.57;4.22;;;17.80;99.90;;;;;;5030822;28;20480;-90
2022/06/24 02:33:46;;;;;;;5.18;4.45;;;17.80;99.90;;;;;;5023587;28;20033;-90
2022/06/24 02:36:12;;;;;;;7.50;4.32;;;17.80;99.90;;;;;;5036306;28;20517;-90
2022/06/24 02:38:38;;;;;;;5.78;4.60;;;17.80;99.90;;;;;;5035950;28;20328;-90
2022/06/24 02:41:04;;;;;;;6.35;4.35;;;17.80;99.90;;;;;;5021779;28;20049;-90
2022/06/24 02:43:35;;;;;;;5.65;4.40;;;17.80;99.90;;;;;;5037292;28;20049;-89
2022/06/24 02:46:12;;;;;;;5.57;4.65;;;17.80;99.90;;;;;;5034590;28;20036;-91
2022/06/24 02:48:39;;;;;;;6.03;4.40;;;17.80;99.90;;;;;;5036654;28;20393;-89
2022/06/24 02:51:07;;;;;;;5.72;4.30;;;17.70;99.90;;;;;;5018472;28;20037;-89
2022/06/24 02:53:33;;;;;;;6.43;4.57;;;17.70;99.90;;;;;;5020526;28;20551;-90
2022/06/24 02:56:05;;;;;;;5.45;4.60;;;17.70;99.90;;;;;;5024224;28;20056;-90
2022/06/24 02:58:31;;;;;;;7.60;4.53;;;17.70;99.90;;;;;;5021310;28;20186;-90
2022/06/24 03:00:57;;;;;;;6.88;4.97;;;17.70;99.90;;;;;;5020769;28;20407;-90
2022/06/24 03:03:27;;;;;;;5.88;4.43;;;17.80;99.90;;;;;;5037189;28;20079;-91
2022/06/24 03:05:53;;;;;;;9.88;4.38;;;17.80;99.90;;;;;;5035609;28;20041;-90
2022/06/24 03:08:22;;;;;;;7.05;4.45;;;17.80;99.90;;;;;;5032570;28;20044;-91
2022/06/24 03:10:49;;;;;;;7.70;4.63;;;17.80;99.90;;;;;;5034889;28;20040;-90
2022/06/24 03:13:15;;;;;;;4.82;4.30;;;17.70;99.90;;;;;;5035300;28;20115;-90
2022/06/24 03:15:42;;;;;;;4.47;4.07;;;17.70;99.90;;;;;;5037092;28;20124;-90
2022/06/24 03:18:07;;;;;;;7.05;4.93;;;17.70;99.90;;;;;;5037338;28;20111;-90
2022/06/24 03:20:33;;;;;;;6.20;4.63;;;17.80;99.90;;;;;;5044116;28;20078;-90
2022/06/24 03:22:59;;;;;;;7.03;5.00;;;17.90;99.90;;;;;;5021474;28;20044;-91
2022/06/24 03:25:24;;;;;;;4.65;4.25;;;17.90;99.90;;;;;;5018041;28;20634;-90
2022/06/24 03:27:50;;;;;;;5.47;4.97;;;17.90;99.90;;;;;;5022124;28;20198;-89
2022/06/24 03:30:18;;;;;;;4.45;4.00;;;17.90;1.00;;;;;;5035699;28;20504;-90
2022/06/24 03:32:44;;;;;;;7.63;4.05;;;18.00;1.00;;;;;;5025398;28;20040;-90
2022/06/24 03:35:10;;;;;;;5.28;4.40;;;18.10;1.00;;;;;;5038732;28;20370;-90
2022/06/24 03:37:35;;;;;;;6.65;4.53;;;18.20;1.00;;;;;;5023870;28;20634;-90
2022/06/24 03:40:02;;;;;;;5.60;4.15;;;18.20;1.00;;;;;;5037269;28;20033;-90
2022/06/24 03:42:28;;;;;;;7.72;4.38;;;18.30;1.00;;;;;;5036209;28;20049;-89
2022/06/24 03:44:55;;;;;;;7.82;4.72;;;18.30;1.00;;;;;;5020894;28;20117;-90
2022/06/24 03:47:20;;;;;;;7.20;4.70;;;18.30;99.90;;;;;;5022847;28;20097;-90
2022/06/24 03:49:51;;;;;;;7.22;4.60;;;18.40;99.90;;;;;;5035588;28;20120;-90
2022/06/24 03:52:17;;;;;;;5.70;4.80;;;18.40;99.90;;;;;;5023064;28;20037;-90
2022/06/24 03:54:42;;;;;;;5.90;5.20;;;18.50;99.90;;;;;;5035258;28;20083;-90
2022/06/24 03:57:08;;;;;;;5.60;4.60;;;18.50;1.00;;;;;;5020706;28;20493;-90
2022/06/24 03:59:34;;;;;;;5.88;4.60;;;18.50;1.00;;;;;;5035936;28;20053;-90
2022/06/24 04:01:59;;;;;;;7.63;4.15;;;18.60;99.90;;;;;;5020136;28;20041;-90
2022/06/24 04:04:25;;;;;;;5.22;3.95;;;18.70;99.90;;;;;;5058331;28;20044;-90
2022/06/24 04:06:50;;;;;;;4.95;4.40;;;18.70;99.90;;;;;;5024456;28;20048;-90
2022/06/24 04:09:16;;;;;;;7.32;4.30;;;18.80;99.90;;;;;;5022226;28;20052;-90
2022/06/24 04:11:42;;;;;;;6.57;4.20;;;19.00;99.90;;;;;;5035437;28;20127;-90
2022/06/24 04:14:08;;;;;;;9.02;4.60;;;19.10;99.90;;;;;;5022994;28;20102;-90
2022/06/24 04:16:33;;;;;;;5.50;4.55;;;19.20;99.90;;;;;;5036125;28;20108;-90
2022/06/24 04:18:59;;;;;;;6.60;4.72;;;19.10;99.90;;;;;;5034505;28;20040;-90
2022/06/24 04:21:25;;;;;;;5.90;4.32;;;19.20;99.90;;;;;;5019145;28;20052;-91
2022/06/24 04:23:50;;;;;;;4.90;4.18;;;19.40;99.90;;;;;;5031555;28;20049;-91
2022/06/24 04:26:27;;;;;;;8.25;4.80;;;19.40;99.90;;;;;;5053802;28;20037;-90
2022/06/24 04:28:52;;;;;;;5.55;4.70;;;19.60;99.90;;;;;;5034089;28;20083;-90
2022/06/24 04:31:18;;;;;;;6.30;4.93;;;19.70;99.90;;;;;;5036864;28;20037;-89
2022/06/24 04:33:44;;;;;;;6.50;4.47;;;19.70;99.90;;;;;;5038147;28;20128;-90
2022/06/24 04:36:12;;;;;;;13.25;4.65;;;19.80;99.90;;;;;;5022991;28;20120;-90
2022/06/24 04:38:38;;;;;;;4.95;4.40;;;19.90;99.90;;;;;;5020783;28;20457;-91
2022/06/24 04:41:16;;;;;;;5.25;4.43;;;19.90;99.90;;;;;;5034732;28;20083;-90
2022/06/24 04:43:42;;;;;;;4.70;4.20;;;20.00;99.90;;;;;;5038358;28;20346;-90
2022/06/24 04:46:08;;;;;;;6.72;4.50;;;20.00;99.90;;;;;;5021317;28;20041;-89
2022/06/24 04:48:35;;;;;;;5.32;4.78;;;20.20;99.90;;;;;;5023369;28;20056;-90
2022/06/24 04:51:02;;;;;;;6.05;4.47;;;20.20;99.90;;;;;;5032054;28;20386;-91
2022/06/24 04:53:28;;;;;;;5.70;4.43;;;20.30;99.90;;;;;;5037247;28;20453;-90
2022/06/24 04:55:57;;;;;;;4.93;4.43;;;20.30;99.90;;;;;;5042430;28;20490;-90
2022/06/24 04:58:22;;;;;;;6.43;4.32;;;20.30;99.90;;;;;;5041873;28;20103;-90
2022/06/24 05:00:48;;;;;;;4.53;4.07;;;20.30;99.90;;;;;;5019151;28;20037;-89
2022/06/24 05:03:15;;;;;;;5.30;4.60;;;20.30;99.90;;;;;;5021988;28;20045;-90
2022/06/24 05:05:41;;;;;;;5.25;4.75;;;20.40;99.90;;;;;;5025532;28;20473;-91
2022/06/24 05:08:07;;;;;;;5.30;4.40;;;20.40;99.90;;;;;;5044882;28;20048;-91
2022/06/24 05:10:32;;;;;;;7.70;4.68;;;20.40;99.90;;;;;;5024532;28;20115;-91
2022/06/24 05:12:58;;;;;;;8.88;4.20;;;20.40;99.90;;;;;;5043107;28;20037;-90
2022/06/24 05:15:24;;;;;;;5.63;4.10;;;20.40;99.90;;;;;;5020680;28;20037;-90
2022/06/24 05:17:49;;;;;;;6.82;4.18;;;20.50;99.90;;;;;;5042073;28;20442;-91
2022/06/24 05:20:15;;;;;;;5.95;4.50;;;20.60;99.90;;;;;;5044313;28;20428;-89
2022/06/24 05:22:41;;;;;;;9.50;5.00;;;20.80;1.00;;;;;;5026513;28;20033;-91
2022/06/24 05:25:08;;;;;;;9.38;4.45;;;20.70;99.90;;;;;;5024536;28;20121;-90
2022/06/24 05:27:34;;;;;;;8.07;4.43;;;20.90;99.90;;;;;;5025271;28;20049;-90
2022/06/24 05:29:59;;;;;;;5.82;4.80;;;21.00;99.90;;;;;;5058302;28;20060;-90
2022/06/24 05:32:29;;;;;;;5.68;5.00;;;21.00;99.90;;;;;;5043056;28;20571;-91
2022/06/24 05:34:56;;;;;;;5.72;5.10;;;21.00;99.90;;;;;;5039924;28;20148;-90
2022/06/24 05:37:21;;;;;;;7.78;5.32;;;21.00;99.90;;;;;;5059833;28;20052;-91
2022/06/24 05:39:47;;;;;;;6.47;5.50;;;21.10;99.90;;;;;;5038638;28;20033;-90
2022/06/24 05:42:13;;;;;;;8.18;5.70;;;21.00;99.90;;;;;;5036983;28;20045;-89
2022/06/24 05:44:38;;;;;;;8.65;6.35;;;20.90;99.90;;;;;;5037348;28;20175;-89
2022/06/24 05:47:04;;;;;;;7.07;6.18;;;20.80;99.90;;;;;;5024790;28;20038;-90
2022/06/24 05:49:32;;;;;;;6.38;5.70;;;20.80;99.90;;;;;;5043364;28;20044;-89
2022/06/24 05:51:58;;;;;;;7.43;6.68;;;20.80;1.00;;;;;;5037893;28;20302;-89
2022/06/24 05:57:21;;;;;;;14.60;7.82;;;20.80;1.00;;;;;;5038796;28;20054;-91
2022/06/24 05:59:47;;;;;;;9.43;7.68;;;20.60;1.00;;;;;;5033970;28;20400;-90
2022/06/24 06:02:13;;;;;;;8.98;7.32;;;20.60;1.00;;;;;;5043396;28;20043;-90
2022/06/24 06:04:38;;;;;;;7.97;7.05;;;20.50;1.00;;;;;;5037033;28;20029;-91
2022/06/24 06:07:04;;;;;;;9.50;7.53;;;20.40;1.00;;;;;;5036580;28;20114;-90
2022/06/24 06:09:33;;;;;;;16.67;8.57;;;20.30;1.00;;;;;;5022885;28;20040;-91
2022/06/24 06:11:59;;;;;;;16.05;10.65;;;20.30;37.30;;;;;;5037669;28;20045;-92
2022/06/24 06:14:24;;;;;;;21.70;12.68;;;20.10;99.90;;;;;;5040465;28;20041;-88
2022/06/24 06:16:50;;;;;;;18.33;11.77;;;19.80;99.90;;;;;;5024123;28;20033;-87
2022/06/24 06:19:16;;;;;;;16.67;11.60;;;19.60;1.00;;;;;;5039508;28;20933;-87
2022/06/24 06:21:41;;;;;;;17.35;11.68;;;19.80;1.00;;;;;;5022451;28;20072;-87
2022/06/24 06:24:07;;;;;;;17.02;12.15;;;19.80;13.20;;;;;;5021818;28;20386;-87
2022/06/24 06:26:33;;;;;;;13.52;10.88;;;19.90;1.00;;;;;;5035387;28;20048;-88
2022/06/24 06:28:59;;;;;;;16.42;10.63;;;19.90;5.90;;;;;;5016643;28;20029;-87
2022/06/24 06:31:24;;;;;;;14.35;10.68;;;19.90;73.50;;;;;;5021823;28;20045;-87
2022/06/24 06:33:51;;;;;;;13.73;9.77;;;19.90;99.90;;;;;;5031801;28;20407;-88
2022/06/24 06:36:16;;;;;;;15.82;10.18;;;20.20;12.00;;;;;;5021762;28;20556;-89
2022/06/24 06:38:43;;;;;;;14.02;10.02;;;20.40;1.00;;;;;;5047003;28;20029;-88
2022/06/24 06:41:08;;;;;;;12.88;10.43;;;20.50;1.00;;;;;;5037253;28;20076;-88
2022/06/24 06:43:34;;;;;;;17.25;10.52;;;20.50;1.00;;;;;;5029058;28;20540;-90
2022/06/24 06:46:00;;;;;;;14.68;10.23;;;20.60;1.00;;;;;;5022294;28;20037;-90
2022/06/24 06:48:29;;;;;;;13.85;9.95;;;20.60;1.00;;;;;;5040407;28;20476;-89
2022/06/24 06:50:56;;;;;;;14.02;9.60;;;20.70;1.00;;;;;;5036629;28;20124;-89
2022/06/24 06:53:22;;;;;;;11.52;8.63;;;20.90;1.00;;;;;;5026109;28;20539;-89
2022/06/24 06:55:48;;;;;;;12.70;8.02;;;20.90;1.00;;;;;;5039854;28;20068;-90
2022/06/24 06:58:14;;;;;;;13.00;8.93;;;20.90;1.00;;;;;;5025938;28;20073;-90
2022/06/24 07:00:39;;;;;;;16.88;9.77;;;20.90;99.90;;;;;;5030579;28;20029;-91
2022/06/24 07:03:05;;;;;;;16.23;10.00;;;20.80;1.00;;;;;;5016047;28;20041;-90
2022/06/24 07:05:31;;;;;;;14.90;9.43;;;20.70;1.00;;;;;;5040019;28;20500;-90
2022/06/24 07:07:57;;;;;;;13.27;9.38;;;20.50;11.60;;;;;;5021635;28;20103;-91
2022/06/24 07:10:25;;;;;;;14.88;10.30;;;20.40;15.10;;;;;;5023213;28;20029;-90
2022/06/24 07:12:50;;;;;;;12.00;9.15;;;20.50;84.50;;;;;;5035772;28;20037;-87
2022/06/24 07:15:16;;;;;;;13.00;8.98;;;20.50;49.90;;;;;;5017867;28;20084;-86
2022/06/24 07:17:42;;;;;;;13.82;8.63;;;20.40;99.90;;;;;;5029750;28;20147;-87
2022/06/24 07:20:09;;;;;;;13.70;8.68;;;20.50;37.00;;;;;;5021007;28;20037;-87
2022/06/24 07:22:34;;;;;;;15.45;9.73;;;20.50;42.10;;;;;;5038147;28;20037;-88
2022/06/24 07:25:00;;;;;;;10.27;8.77;;;20.50;84.40;;;;;;5035584;28;20131;-87
2022/06/24 07:27:26;;;;;;;8.75;7.55;;;20.50;54.80;;;;;;5022923;28;20372;-87
2022/06/24 07:29:52;;;;;;;10.95;7.88;;;20.50;1.00;;;;;;5038240;28;20291;-88
2022/06/24 07:32:17;;;;;;;8.25;7.38;;;20.50;1.00;;;;;;5039113;28;20137;-87
2022/06/24 07:34:43;;;;;;;12.38;8.40;;;20.50;45.60;;;;;;5041669;28;20578;-89
2022/06/24 07:37:08;;;;;;;11.50;7.90;;;20.40;89.50;;;;;;5040032;28;20073;-87
2022/06/24 07:39:34;;;;;;;9.38;8.45;;;20.40;99.90;;;;;;5040641;28;20037;-87
2022/06/24 07:42:00;;;;;;;12.73;8.48;;;20.40;99.90;;;;;;5037280;28;20519;-87
2022/06/24 07:44:27;;;;;;;12.27;7.88;;;20.50;99.90;;;;;;5018024;28;20107;-87
2022/06/24 07:46:52;;;;;;;9.88;7.82;;;20.60;99.90;;;;;;5046438;28;20448;-87
2022/06/24 07:49:18;;;;;;;10.70;8.75;;;20.60;99.90;;;;;;5032434;28;20040;-87
2022/06/24 07:51:44;;;;;;;10.10;8.48;;;20.60;99.90;;;;;;5020357;28;20072;-88
2022/06/24 07:54:10;;;;;;;8.07;6.85;;;20.70;99.90;;;;;;5015172;28;20073;-88
2022/06/24 07:59:21;;;;;;;7.93;6.30;;;20.60;99.90;;;;;;5037888;28;20037;-89
2022/06/24 08:01:48;;;;;;;6.88;6.18;;;20.60;99.90;;;;;;5030184;28;20035;-88
2022/06/24 08:04:14;;;;;;;7.32;6.20;;;20.60;99.90;;;;;;5036453;28;20567;-88
2022/06/24 08:06:45;;;;;;;6.15;5.55;;;20.70;99.90;;;;;;5048803;28;20594;-85
2022/06/24 08:09:11;;;;;;;7.82;5.72;;;20.70;85.00;;;;;;5016776;28;20230;-86
2022/06/24 08:11:36;;;;;;;7.18;5.95;;;20.70;74.10;;;;;;5036881;28;20036;-87
2022/06/24 08:14:03;;;;;;;6.80;5.43;;;20.70;94.40;;;;;;5022942;28;20527;-86
2022/06/24 08:16:29;;;;;;;6.97;5.63;;;20.70;78.60;;;;;;5039287;28;20033;-86
2022/06/24 08:18:55;;;;;;;6.40;5.38;;;20.60;99.90;;;;;;5040070;28;20047;-87
2022/06/24 08:21:21;;;;;;;6.57;5.32;;;20.60;99.90;;;;;;5041256;28;20033;-87
2022/06/24 08:23:47;;;;;;;6.47;5.70;;;20.70;99.90;;;;;;5043435;28;20236;-87
2022/06/24 08:26:13;;;;;;;7.35;6.25;;;20.80;84.00;;;;;;5034142;28;20368;-87
2022/06/24 08:28:38;;;;;;;7.03;5.72;;;20.90;64.10;;;;;;5039605;28;20083;-88
2022/06/24 08:31:04;;;;;;;6.68;5.22;;;21.20;17.10;;;;;;5042755;28;20467;-88
2022/06/24 08:33:33;;;;;;;5.95;5.35;;;21.30;1.00;;;;;;5056052;28;20128;-88
2022/06/24 08:35:59;;;;;;;6.18;5.55;;;21.30;1.00;;;;;;5023290;28;20056;-88
2022/06/24 08:38:24;;;;;;;7.03;5.00;;;21.50;1.00;;;;;;5027104;28;20045;-88
2022/06/24 08:40:54;;;;;;;6.53;5.53;;;21.60;1.00;;;;;;5034659;28;20605;-88
2022/06/24 08:43:21;;;;;;;6.45;5.47;;;21.60;1.00;;;;;;5023520;28;20570;-87
2022/06/24 08:45:48;;;;;;;6.88;5.18;;;21.60;1.00;;;;;;5035167;28;20484;-87
2022/06/24 08:48:17;;;;;;;7.57;6.00;;;21.60;1.00;;;;;;5023631;28;20130;-88
2022/06/24 08:50:42;;;;;;;6.78;5.10;;;21.80;1.00;;;;;;5031256;28;20090;-88
2022/06/24 08:53:10;;;;;;;6.72;6.00;;;21.80;1.00;;;;;;5035312;28;20633;-87
2022/06/24 08:55:37;;;;;;;7.03;5.75;;;21.60;1.00;;;;;;5028823;28;20135;-87
2022/06/24 08:58:12;;;;;;;7.22;5.40;;;21.60;5.90;;;;;;5053700;28;20044;-87
2022/06/24 09:00:39;;;;;;;6.57;5.68;;;21.60;1.00;;;;;;5040629;28;20037;-87
2022/06/24 09:03:08;;;;;;;8.10;5.68;;;21.60;1.00;;;;;;5029240;28;20052;-87
2022/06/24 09:05:35;;;;;;;7.25;5.25;;;21.40;1.00;;;;;;5021590;28;20477;-87
2022/06/24 09:08:08;;;;;;;9.02;5.45;;;21.50;1.00;;;;;;5055388;28;20555;-86
2022/06/24 09:10:36;;;;;;;7.70;5.00;;;21.50;6.90;;;;;;5020141;28;20046;-86
2022/06/24 09:13:02;;;;;;;5.50;5.00;;;21.60;15.40;;;;;;5027171;28;20037;-87
2022/06/24 09:15:28;;;;;;;6.63;5.35;;;21.10;1.00;;;;;;5033763;28;20060;-87
2022/06/24 09:17:54;;;;;;;5.85;5.03;;;21.20;1.00;;;;;;5022019;28;20036;-87
2022/06/24 09:20:25;;;;;;;6.13;5.53;;;21.10;1.00;;;;;;5041559;28;20041;-87
2022/06/24 09:23:10;;;;;;;6.88;5.25;;;20.90;62.70;;;;;;5039964;28;20183;-88
2022/06/24 09:25:51;;;;;;;6.65;5.72;;;20.70;24.60;;;;;;5041144;28;20064;-87
2022/06/24 09:28:24;;;;;;;6.88;5.03;;;20.70;79.00;;;;;;5042429;28;20040;-87
2022/06/24 09:30:58;;;;;;;8.93;5.05;;;20.80;56.50;;;;;;5036952;28;20051;-86
2022/06/24 09:33:24;;;;;;;6.33;4.67;;;20.90;29.80;;;;;;5041766;28;20091;-88
2022/06/24 09:36:02;;;;;;;7.97;4.95;;;21.00;23.30;;;;;;5039478;28;20057;-88
2022/06/24 09:38:28;;;;;;;5.90;4.97;;;21.10;11.40;;;;;;5041924;28;20102;-87
2022/06/24 09:41:04;;;;;;;6.65;5.30;;;21.10;3.50;;;;;;5022792;28;20082;-87
2022/06/24 09:43:31;;;;;;;5.70;5.10;;;21.10;16.30;;;;;;5032423;28;20090;-87
2022/06/24 09:45:58;;;;;;;7.22;5.13;;;20.90;4.10;;;;;;5029299;28;20148;-87
2022/06/24 09:48:30;;;;;;;5.43;4.93;;;20.80;17.30;;;;;;5038669;28;20095;-89
2022/06/24 09:51:04;;;;;;;6.05;5.50;;;20.70;1.00;;;;;;5052647;28;20147;-87
2022/06/24 09:53:32;;;;;;;7.35;5.15;;;20.70;54.40;;;;;;5042394;28;20041;-87
2022/06/24 09:55:59;;;;;;;5.70;4.93;;;20.50;48.70;;;;;;5017643;28;20818;-87
2022/06/24 09:58:25;;;;;;;7.20;5.32;;;20.60;64.50;;;;;;5042451;28;20036;-88
2022/06/24 10:00:52;;;;;;;6.35;5.38;;;20.60;94.00;;;;;;5040567;28;20059;-87
2022/06/24 10:03:18;;;;;;;6.78;5.57;;;20.60;90.60;;;;;;5041396;28;20496;-87
2022/06/24 10:05:51;;;;;;;11.18;5.85;;;20.40;99.90;;;;;;5040596;28;20477;-88
2022/06/24 10:08:20;;;;;;;7.13;6.30;;;20.40;99.90;;;;;;5043074;28;20036;-88
2022/06/24 10:10:53;;;;;;;7.43;6.32;;;20.20;99.90;;;;;;5040264;28;20113;-89
2022/06/24 10:13:28;;;;;;;7.22;6.53;;;20.10;99.90;;;;;;5043283;28;20142;-88
2022/06/24 10:16:05;;;;;;;7.22;6.50;;;20.00;99.90;;;;;;5038769;28;20078;-87
2022/06/24 10:18:51;;;;;;;8.90;6.78;;;19.90;99.90;;;;;;5040620;28;20036;-88
2022/06/24 10:21:18;;;;;;;7.05;6.32;;;19.70;99.90;;;;;;5040665;28;20122;-88
2022/06/24 10:23:46;;;;;;;8.40;6.72;;;19.70;99.90;;;;;;5043271;28;20094;-88
2022/06/24 10:26:19;;;;;;;7.78;7.07;;;19.60;99.90;;;;;;5041237;28;20079;-88
2022/06/24 10:28:59;;;;;;;7.80;6.85;;;19.50;99.90;;;;;;5043517;28;20053;-88
2022/06/24 10:34:30;;;;;;;7.90;7.10;;;19.40;99.90;;;;;;5036363;28;20045;-86
2022/06/24 10:37:04;;;;;;;6.15;5.50;;;19.30;99.90;;;;;;5027624;28;20067;-87
2022/06/24 10:39:45;;;;;;;7.38;5.13;;;19.10;99.90;;;;;;5043012;28;20183;-87
2022/06/24 10:42:14;;;;;;;7.28;5.32;;;19.00;99.90;;;;;;5052646;28;20053;-89
2022/06/24 10:45:00;;;;;;;8.68;5.70;;;18.90;99.90;;;;;;5023535;28;20044;-87
2022/06/24 10:47:44;;;;;;;6.63;4.95;;;19.10;99.90;;;;;;5034538;28;20045;-86
2022/06/24 10:50:13;;;;;;;4.80;4.10;;;18.90;99.90;;;;;;5038307;28;20045;-87
2022/06/24 10:52:56;;;;;;;6.50;4.57;;;18.80;99.90;;;;;;5024428;28;20547;-87
2022/06/24 10:55:23;;;;;;;5.68;4.35;;;18.80;99.90;;;;;;5034974;28;20091;-87
2022/06/24 10:58:08;;;;;;;4.03;3.47;;;18.70;99.90;;;;;;5058670;28;20076;-87
2022/06/24 11:00:37;;;;;;;3.45;3.13;;;18.70;99.90;;;;;;5031222;28;20329;-87
2022/06/24 11:03:02;;;;;;;4.15;3.17;;;18.60;99.90;;;;;;5023670;28;20051;-87
2022/06/24 11:05:37;;;;;;;3.90;3.20;;;18.50;99.90;;;;;;5028216;28;20076;-86
2022/06/24 11:08:09;;;;;;;4.70;2.95;;;18.50;99.90;;;;;;5055065;28;20053;-87
2022/06/24 11:10:38;;;;;;;5.32;3.00;;;18.50;99.90;;;;;;5032946;28;20063;-86
2022/06/24 11:13:03;;;;;;;3.85;2.78;;;18.50;99.90;;;;;;5041376;28;20045;-87
2022/06/24 11:15:46;;;;;;;5.57;3.00;;;18.50;99.90;;;;;;5037650;28;20048;-87
2022/06/24 11:18:21;;;;;;;3.67;2.67;;;18.40;99.90;;;;;;5030293;28;20550;-87
2022/06/24 11:20:47;;;;;;;;;;;18.40;99.90;;;;;;5028706;28;20500;-86
2022/06/24 11:23:15;;;;;;;3.55;2.78;;;18.40;99.90;;;;;;5039567;28;19966;-86
2022/06/24 11:25:46;;;;;;;4.60;3.00;;;18.40;99.90;;;;;;5024586;28;20463;-86
2022/06/24 11:28:26;;;;;;;3.50;2.90;;;18.50;99.90;;;;;;5018580;28;20048;-86
2022/06/24 11:30:53;;;;;;;5.00;4.50;;;18.40;99.90;;;;;;5034303;28;20069;-86
2022/06/24 11:33:19;;;;;;;5.03;4.53;;;18.30;99.90;;;;;;5021537;28;20108;-86
2022/06/24 11:35:47;;;;;;;4.95;4.55;;;18.50;99.90;;;;;;5018825;28;20091;-86
2022/06/24 11:38:13;;;;;;;8.23;6.40;;;18.50;99.90;;;;;;5037308;28;20064;-86
2022/06/24 11:40:40;;;;;;;7.10;6.40;;;18.60;99.90;;;;;;5036531;28;20120;-86
2022/06/24 11:43:11;;;;;;;4.88;4.47;;;18.70;99.90;;;;;;5040824;28;20088;-87
2022/06/24 11:45:48;;;;;;;4.35;3.95;;;18.80;99.90;;;;;;5030697;28;20064;-87
2022/06/24 11:48:21;;;;;;;4.65;3.80;;;19.00;99.90;;;;;;5031201;28;20044;-86
2022/06/24 11:50:47;;;;;;;4.43;3.65;;;19.10;99.90;;;;;;5047629;28;20215;-87
2022/06/24 11:53:13;;;;;;;5.15;3.85;;;19.20;76.60;;;;;;5022999;28;20095;-86
2022/06/24 11:55:47;;;;;;;6.70;3.80;;;19.30;83.00;;;;;;5021884;28;20392;-86
2022/06/24 11:58:20;;;;;;;4.78;3.53;;;19.40;53.00;;;;;;5024295;28;20029;-86
2022/06/24 12:00:46;;;;;;;6.75;4.10;;;19.30;34.10;;;;;;5016968;28;20029;-86
2022/06/24 12:03:13;;;;;;;5.40;4.13;;;19.40;92.00;;;;;;5032269;28;20048;-87
2022/06/24 12:05:42;;;;;;;4.40;4.00;;;19.40;1.00;;;;;;5024272;28;20041;-87
2022/06/24 12:08:08;;;;;;;4.88;4.10;;;19.40;19.00;;;;;;5023421;28;20120;-87
2022/06/24 12:10:35;;;;;;;4.18;3.38;;;19.50;67.40;;;;;;5046440;28;20111;-87
2022/06/24 12:13:05;;;;;;;4.13;3.75;;;19.50;15.50;;;;;;5020253;28;20073;-87
2022/06/24 12:15:37;;;;;;;4.47;4.00;;;19.60;28.00;;;;;;5055068;28;20148;-87
2022/06/24 12:18:18;;;;;;;4.50;4.03;;;19.50;1.00;;;;;;5032604;28;20041;-87
2022/06/24 12:21:04;;;;;;;5.18;4.55;;;19.70;6.60;;;;;;5037349;28;20028;-87
2022/06/24 12:23:36;;;;;;;5.68;4.18;;;19.80;17.80;;;;;;5038817;28;20037;-86
2022/06/24 12:26:11;;;;;;;4.15;3.75;;;19.90;10.40;;;;;;5030285;28;20106;-87
2022/06/24 12:28:37;;;;;;;6.90;4.57;;;20.10;8.70;;;;;;5040444;28;20557;-86
2022/06/24 12:31:08;;;;;;;4.30;3.90;;;20.40;1.00;;;;;;5032581;28;20057;-87
2022/06/24 12:33:50;;;;;;;4.80;4.00;;;20.70;1.00;;;;;;5018289;28;20128;-86
2022/06/24 12:36:18;;;;;;;4.70;3.95;;;20.60;99.90;;;;;;5028822;28;20099;-87
2022/06/24 12:38:55;;;;;;;5.28;4.30;;;21.00;1.00;;;;;;5028659;28;20456;-87
2022/06/24 12:41:23;;;;;;;7.65;4.32;;;21.20;99.90;;;;;;5032749;28;20056;-86
2022/06/24 12:44:06;;;;;;;5.28;4.78;;;21.40;1.00;;;;;;5037903;28;20041;-86
2022/06/24 12:46:35;;;;;;;6.00;5.03;;;21.60;99.90;;;;;;5036177;28;20056;-87
2022/06/24 12:51:56;;;;;;;6.40;5.40;;;21.60;99.90;;;;;;5036135;28;20162;-87
2022/06/24 12:54:22;;;;;;;5.63;5.10;;;21.60;99.90;;;;;;5030053;28;20259;-87
2022/06/24 12:56:48;;;;;;;6.47;5.00;;;21.80;99.90;;;;;;5035239;28;20433;-87
2022/06/24 12:59:13;;;;;;;7.30;5.07;;;22.00;99.90;;;;;;5039610;28;20049;-87
2022/06/24 13:01:41;;;;;;;6.53;5.50;;;21.90;99.90;;;;;;5033074;28;20357;-86
2022/06/24 13:04:07;;;;;;;7.63;6.38;;;22.50;99.90;;;;;;5050284;28;20041;-86
2022/06/24 13:06:35;;;;;;;7.72;7.00;;;22.20;99.90;;;;;;5022116;28;20052;-87
2022/06/24 13:09:01;;;;;;;7.28;6.57;;;22.70;99.90;;;;;;5031267;28;20577;-87